Ramer, Alabama
Current Conditions -  °F | °C
As of 8:53 PM on Thursday 27 Nov 2014 (Local Time) from KTOI Reporting Station
Clear Clear  
Wind Chill:   Ceiling: Unl
Heat Index:   Visibility: 10mi
Dew Point: -1°   Wind: 5mph
Humidity: 73%   Direction: 330°NNW
Pressure: 30.43"   Gusts: NA
Location:  32.05°N, 86.22°W
Report Text: KTOI 280253Z AUTO 33004KT 10SM CLR 03/M01 A3043 RMK AO2 SLP306 T00331011 51015
Loading
Personal Weather Stations






























Interactive Weather Map New forecast layout! Learn more

10-Day Weather Forecast

Advertisements
Track Severe Weather on mobile